sensor_id;sensor_type;location;lat;lon;timestamp;P1;durP1;ratioP1;P2;durP2;ratioP2
42098;SDS011;27758;55.900;8.516;2022-07-23T00:01:59;19.77;;;3.47;;
42098;SDS011;27758;55.900;8.516;2022-07-23T00:04:25;22.95;;;4.05;;
42098;SDS011;27758;55.900;8.516;2022-07-23T00:06:51;29.58;;;4.65;;
42098;SDS011;27758;55.900;8.516;2022-07-23T00:09:17;13.43;;;3.15;;
42098;SDS011;27758;55.900;8.516;2022-07-23T00:11:43;17.00;;;4.38;;
42098;SDS011;27758;55.900;8.516;2022-07-23T00:14:08;14.15;;;3.55;;
42098;SDS011;27758;55.900;8.516;2022-07-23T00:16:34;22.42;;;4.18;;
42098;SDS011;27758;55.900;8.516;2022-07-23T00:19:00;13.85;;;3.15;;
42098;SDS011;27758;55.900;8.516;2022-07-23T00:21:27;21.02;;;4.50;;
42098;SDS011;27758;55.900;8.516;2022-07-23T00:23:53;22.30;;;3.85;;
42098;SDS011;27758;55.900;8.516;2022-07-23T00:26:19;24.52;;;4.63;;
42098;SDS011;27758;55.900;8.516;2022-07-23T00:28:45;17.73;;;3.63;;
42098;SDS011;27758;55.900;8.516;2022-07-23T00:31:11;15.27;;;3.67;;
42098;SDS011;27758;55.900;8.516;2022-07-23T00:33:36;20.80;;;3.80;;
42098;SDS011;27758;55.900;8.516;2022-07-23T00:36:02;18.92;;;3.95;;
42098;SDS011;27758;55.900;8.516;2022-07-23T00:38:28;24.80;;;4.80;;
42098;SDS011;27758;55.900;8.516;2022-07-23T00:40:55;19.38;;;4.25;;
42098;SDS011;27758;55.900;8.516;2022-07-23T00:43:20;18.25;;;4.68;;
42098;SDS011;27758;55.900;8.516;2022-07-23T00:45:47;17.67;;;3.40;;
42098;SDS011;27758;55.900;8.516;2022-07-23T00:48:13;22.00;;;4.40;;
42098;SDS011;27758;55.900;8.516;2022-07-23T00:50:38;18.90;;;4.28;;
42098;SDS011;27758;55.900;8.516;2022-07-23T00:53:05;21.52;;;4.93;;
42098;SDS011;27758;55.900;8.516;2022-07-23T00:55:31;19.35;;;3.63;;
42098;SDS011;27758;55.900;8.516;2022-07-23T00:57:57;15.88;;;3.80;;
42098;SDS011;27758;55.900;8.516;2022-07-23T01:00:24;23.58;;;4.72;;
42098;SDS011;27758;55.900;8.516;2022-07-23T01:02:50;19.00;;;4.13;;
42098;SDS011;27758;55.900;8.516;2022-07-23T01:05:16;18.92;;;4.50;;
42098;SDS011;27758;55.900;8.516;2022-07-23T01:07:43;20.33;;;4.47;;
42098;SDS011;27758;55.900;8.516;2022-07-23T01:10:09;20.20;;;4.05;;
42098;SDS011;27758;55.900;8.516;2022-07-23T01:13:02;15.98;;;4.10;;
42098;SDS011;27758;55.900;8.516;2022-07-23T01:15:33;23.08;;;5.18;;
42098;SDS011;27758;55.900;8.516;2022-07-23T01:18:00;19.88;;;4.60;;
42098;SDS011;27758;55.900;8.516;2022-07-23T01:20:28;15.43;;;4.30;;
42098;SDS011;27758;55.900;8.516;2022-07-23T01:22:54;18.33;;;3.75;;
42098;SDS011;27758;55.900;8.516;2022-07-23T01:25:21;18.65;;;4.35;;
42098;SDS011;27758;55.900;8.516;2022-07-23T01:27:47;14.68;;;3.88;;
42098;SDS011;27758;55.900;8.516;2022-07-23T01:30:14;21.65;;;4.85;;
42098;SDS011;27758;55.900;8.516;2022-07-23T01:32:40;22.67;;;5.30;;
42098;SDS011;27758;55.900;8.516;2022-07-23T01:35:06;17.45;;;4.47;;
42098;SDS011;27758;55.900;8.516;2022-07-23T01:37:33;20.17;;;4.45;;
42098;SDS011;27758;55.900;8.516;2022-07-23T01:39:59;22.58;;;4.93;;
42098;SDS011;27758;55.900;8.516;2022-07-23T01:42:25;20.25;;;5.25;;
42098;SDS011;27758;55.900;8.516;2022-07-23T01:44:51;18.80;;;4.78;;
42098;SDS011;27758;55.900;8.516;2022-07-23T01:47:17;14.23;;;4.13;;
42098;SDS011;27758;55.900;8.516;2022-07-23T01:49:43;17.52;;;4.72;;
42098;SDS011;27758;55.900;8.516;2022-07-23T01:52:08;17.02;;;3.97;;
42098;SDS011;27758;55.900;8.516;2022-07-23T01:54:36;19.85;;;5.22;;
42098;SDS011;27758;55.900;8.516;2022-07-23T01:57:04;25.05;;;5.55;;
42098;SDS011;27758;55.900;8.516;2022-07-23T01:59:31;21.58;;;4.40;;
42098;SDS011;27758;55.900;8.516;2022-07-23T02:01:57;19.58;;;4.10;;
42098;SDS011;27758;55.900;8.516;2022-07-23T02:04:23;20.65;;;5.80;;
42098;SDS011;27758;55.900;8.516;2022-07-23T02:06:50;22.55;;;5.07;;
42098;SDS011;27758;55.900;8.516;2022-07-23T02:09:17;19.60;;;4.53;;
42098;SDS011;27758;55.900;8.516;2022-07-23T02:11:43;20.23;;;4.38;;
42098;SDS011;27758;55.900;8.516;2022-07-23T02:14:09;21.38;;;4.22;;
42098;SDS011;27758;55.900;8.516;2022-07-23T02:16:36;14.40;;;4.93;;
42098;SDS011;27758;55.900;8.516;2022-07-23T02:19:02;17.52;;;4.78;;
42098;SDS011;27758;55.900;8.516;2022-07-23T02:21:28;19.45;;;5.15;;
42098;SDS011;27758;55.900;8.516;2022-07-23T02:23:54;18.85;;;4.05;;
42098;SDS011;27758;55.900;8.516;2022-07-23T02:26:20;18.13;;;4.20;;
42098;SDS011;27758;55.900;8.516;2022-07-23T02:28:46;12.52;;;3.50;;
42098;SDS011;27758;55.900;8.516;2022-07-23T02:31:12;15.48;;;3.83;;
42098;SDS011;27758;55.900;8.516;2022-07-23T02:33:38;20.05;;;4.40;;
42098;SDS011;27758;55.900;8.516;2022-07-23T02:36:03;20.55;;;4.18;;
42098;SDS011;27758;55.900;8.516;2022-07-23T02:38:30;14.48;;;3.47;;
42098;SDS011;27758;55.900;8.516;2022-07-23T02:40:56;20.83;;;5.05;;
42098;SDS011;27758;55.900;8.516;2022-07-23T02:43:21;22.45;;;5.18;;
42098;SDS011;27758;55.900;8.516;2022-07-23T02:45:47;15.70;;;4.38;;
42098;SDS011;27758;55.900;8.516;2022-07-23T02:48:13;18.10;;;4.80;;
42098;SDS011;27758;55.900;8.516;2022-07-23T02:50:39;18.08;;;5.07;;
42098;SDS011;27758;55.900;8.516;2022-07-23T02:53:05;16.85;;;4.45;;
42098;SDS011;27758;55.900;8.516;2022-07-23T02:55:31;18.10;;;4.22;;
42098;SDS011;27758;55.900;8.516;2022-07-23T02:57:57;21.73;;;4.78;;
42098;SDS011;27758;55.900;8.516;2022-07-23T03:00:22;15.32;;;4.03;;
42098;SDS011;27758;55.900;8.516;2022-07-23T03:02:48;16.98;;;4.43;;
42098;SDS011;27758;55.900;8.516;2022-07-23T03:05:14;19.65;;;4.07;;
42098;SDS011;27758;55.900;8.516;2022-07-23T03:07:40;22.55;;;4.68;;
42098;SDS011;27758;55.900;8.516;2022-07-23T03:10:06;24.02;;;5.10;;
42098;SDS011;27758;55.900;8.516;2022-07-23T03:12:32;12.50;;;3.17;;
42098;SDS011;27758;55.900;8.516;2022-07-23T03:14:58;21.23;;;5.07;;
42098;SDS011;27758;55.900;8.516;2022-07-23T03:17:24;19.25;;;4.68;;
42098;SDS011;27758;55.900;8.516;2022-07-23T03:19:50;16.77;;;4.28;;
42098;SDS011;27758;55.900;8.516;2022-07-23T03:22:16;19.27;;;4.20;;
42098;SDS011;27758;55.900;8.516;2022-07-23T03:24:41;28.77;;;5.75;;
42098;SDS011;27758;55.900;8.516;2022-07-23T03:27:20;14.18;;;4.20;;
42098;SDS011;27758;55.900;8.516;2022-07-23T03:32:15;17.38;;;4.22;;
42098;SDS011;27758;55.900;8.516;2022-07-23T03:34:41;19.15;;;4.00;;
42098;SDS011;27758;55.900;8.516;2022-07-23T03:37:07;22.58;;;4.75;;
42098;SDS011;27758;55.900;8.516;2022-07-23T03:39:33;18.42;;;3.92;;
42098;SDS011;27758;55.900;8.516;2022-07-23T03:41:59;19.02;;;4.53;;
42098;SDS011;27758;55.900;8.516;2022-07-23T03:44:25;10.68;;;3.65;;
42098;SDS011;27758;55.900;8.516;2022-07-23T03:46:51;18.77;;;4.53;;
42098;SDS011;27758;55.900;8.516;2022-07-23T03:49:16;16.17;;;3.90;;
42098;SDS011;27758;55.900;8.516;2022-07-23T03:51:42;17.25;;;3.90;;
42098;SDS011;27758;55.900;8.516;2022-07-23T03:54:08;12.48;;;3.38;;
42098;SDS011;27758;55.900;8.516;2022-07-23T03:56:34;11.93;;;3.72;;
42098;SDS011;27758;55.900;8.516;2022-07-23T03:59:00;20.90;;;4.30;;
42098;SDS011;27758;55.900;8.516;2022-07-23T04:01:26;18.13;;;4.35;;
42098;SDS011;27758;55.900;8.516;2022-07-23T04:03:52;15.23;;;3.53;;
42098;SDS011;27758;55.900;8.516;2022-07-23T04:06:18;14.85;;;3.42;;
42098;SDS011;27758;55.900;8.516;2022-07-23T04:08:44;17.23;;;4.75;;
42098;SDS011;27758;55.900;8.516;2022-07-23T04:11:10;13.07;;;4.45;;
42098;SDS011;27758;55.900;8.516;2022-07-23T04:13:36;15.80;;;4.20;;
42098;SDS011;27758;55.900;8.516;2022-07-23T04:16:01;11.88;;;3.33;;
42098;SDS011;27758;55.900;8.516;2022-07-23T04:18:29;13.80;;;3.42;;
42098;SDS011;27758;55.900;8.516;2022-07-23T04:20:55;17.30;;;4.15;;
42098;SDS011;27758;55.900;8.516;2022-07-23T04:23:21;12.77;;;3.72;;
42098;SDS011;27758;55.900;8.516;2022-07-23T04:25:46;15.15;;;3.67;;
42098;SDS011;27758;55.900;8.516;2022-07-23T04:28:12;17.98;;;4.00;;
42098;SDS011;27758;55.900;8.516;2022-07-23T04:30:38;12.25;;;3.80;;
42098;SDS011;27758;55.900;8.516;2022-07-23T04:33:04;13.50;;;3.28;;
42098;SDS011;27758;55.900;8.516;2022-07-23T04:35:32;14.38;;;4.00;;
42098;SDS011;27758;55.900;8.516;2022-07-23T04:38:02;11.80;;;3.60;;
42098;SDS011;27758;55.900;8.516;2022-07-23T04:40:28;20.58;;;4.20;;
42098;SDS011;27758;55.900;8.516;2022-07-23T04:42:55;15.38;;;3.92;;
42098;SDS011;27758;55.900;8.516;2022-07-23T04:45:22;13.93;;;3.65;;
42098;SDS011;27758;55.900;8.516;2022-07-23T04:47:51;17.53;;;3.93;;
42098;SDS011;27758;55.900;8.516;2022-07-23T04:50:17;11.13;;;3.72;;
42098;SDS011;27758;55.900;8.516;2022-07-23T04:52:49;15.93;;;3.78;;
42098;SDS011;27758;55.900;8.516;2022-07-23T04:55:15;16.05;;;3.95;;
42098;SDS011;27758;55.900;8.516;2022-07-23T04:57:41;17.42;;;3.67;;
42098;SDS011;27758;55.900;8.516;2022-07-23T05:00:08;16.77;;;3.88;;
42098;SDS011;27758;55.900;8.516;2022-07-23T05:02:34;16.17;;;3.80;;
42098;SDS011;27758;55.900;8.516;2022-07-23T05:05:00;11.38;;;3.28;;
42098;SDS011;27758;55.900;8.516;2022-07-23T05:07:26;13.35;;;3.38;;
42098;SDS011;27758;55.900;8.516;2022-07-23T05:09:52;13.00;;;3.30;;
42098;SDS011;27758;55.900;8.516;2022-07-23T05:12:18;15.45;;;3.53;;
42098;SDS011;27758;55.900;8.516;2022-07-23T05:14:44;15.85;;;3.13;;
42098;SDS011;27758;55.900;8.516;2022-07-23T05:17:09;9.70;;;3.15;;
42098;SDS011;27758;55.900;8.516;2022-07-23T05:19:35;16.38;;;3.58;;
42098;SDS011;27758;55.900;8.516;2022-07-23T05:22:01;15.30;;;3.65;;
42098;SDS011;27758;55.900;8.516;2022-07-23T05:24:27;13.68;;;2.90;;
42098;SDS011;27758;55.900;8.516;2022-07-23T05:26:53;11.15;;;3.28;;
42098;SDS011;27758;55.900;8.516;2022-07-23T05:29:19;9.02;;;2.70;;
42098;SDS011;27758;55.900;8.516;2022-07-23T05:31:45;14.70;;;3.03;;
42098;SDS011;27758;55.900;8.516;2022-07-23T05:34:11;8.55;;;2.42;;
42098;SDS011;27758;55.900;8.516;2022-07-23T05:36:37;9.48;;;2.58;;
42098;SDS011;27758;55.900;8.516;2022-07-23T05:39:03;12.60;;;2.70;;
42098;SDS011;27758;55.900;8.516;2022-07-23T05:41:29;9.82;;;2.92;;
42098;SDS011;27758;55.900;8.516;2022-07-23T05:43:55;15.00;;;3.25;;
42098;SDS011;27758;55.900;8.516;2022-07-23T05:46:21;13.35;;;3.15;;
42098;SDS011;27758;55.900;8.516;2022-07-23T05:48:47;16.00;;;3.97;;
42098;SDS011;27758;55.900;8.516;2022-07-23T05:51:21;11.40;;;3.30;;
42098;SDS011;27758;55.900;8.516;2022-07-23T05:53:48;7.75;;;2.75;;
42098;SDS011;27758;55.900;8.516;2022-07-23T05:56:15;10.85;;;2.95;;
42098;SDS011;27758;55.900;8.516;2022-07-23T05:58:41;9.93;;;3.17;;
42098;SDS011;27758;55.900;8.516;2022-07-23T06:01:08;10.60;;;3.17;;
42098;SDS011;27758;55.900;8.516;2022-07-23T06:03:34;12.68;;;3.40;;
42098;SDS011;27758;55.900;8.516;2022-07-23T06:06:00;14.75;;;3.40;;
42098;SDS011;27758;55.900;8.516;2022-07-23T06:08:26;14.57;;;3.72;;
42098;SDS011;27758;55.900;8.516;2022-07-23T06:10:52;11.45;;;3.50;;
42098;SDS011;27758;55.900;8.516;2022-07-23T06:13:18;11.77;;;3.10;;
42098;SDS011;27758;55.900;8.516;2022-07-23T06:15:44;12.82;;;4.03;;
42098;SDS011;27758;55.900;8.516;2022-07-23T06:18:10;14.98;;;4.40;;
42098;SDS011;27758;55.900;8.516;2022-07-23T06:20:36;12.65;;;4.28;;
42098;SDS011;27758;55.900;8.516;2022-07-23T06:23:02;13.55;;;5.03;;
42098;SDS011;27758;55.900;8.516;2022-07-23T06:25:27;14.52;;;3.75;;
42098;SDS011;27758;55.900;8.516;2022-07-23T06:27:53;10.93;;;3.25;;
42098;SDS011;27758;55.900;8.516;2022-07-23T06:30:19;10.55;;;2.42;;
42098;SDS011;27758;55.900;8.516;2022-07-23T06:32:45;7.25;;;2.67;;
42098;SDS011;27758;55.900;8.516;2022-07-23T06:35:13;11.98;;;2.95;;
42098;SDS011;27758;55.900;8.516;2022-07-23T06:37:40;12.52;;;3.22;;
42098;SDS011;27758;55.900;8.516;2022-07-23T06:40:06;12.18;;;2.90;;
42098;SDS011;27758;55.900;8.516;2022-07-23T06:42:32;13.40;;;2.83;;
42098;SDS011;27758;55.900;8.516;2022-07-23T06:44:58;7.35;;;2.67;;
42098;SDS011;27758;55.900;8.516;2022-07-23T06:47:24;15.52;;;3.17;;
42098;SDS011;27758;55.900;8.516;2022-07-23T06:49:50;10.65;;;3.17;;
42098;SDS011;27758;55.900;8.516;2022-07-23T06:52:15;10.45;;;2.75;;
42098;SDS011;27758;55.900;8.516;2022-07-23T06:54:41;9.45;;;2.40;;
42098;SDS011;27758;55.900;8.516;2022-07-23T06:57:07;9.27;;;3.00;;
42098;SDS011;27758;55.900;8.516;2022-07-23T06:59:33;11.23;;;2.80;;
42098;SDS011;27758;55.900;8.516;2022-07-23T07:02:01;10.50;;;2.45;;
42098;SDS011;27758;55.900;8.516;2022-07-23T07:04:27;12.50;;;2.95;;
42098;SDS011;27758;55.900;8.516;2022-07-23T07:06:53;13.60;;;3.20;;
42098;SDS011;27758;55.900;8.516;2022-07-23T07:09:19;10.68;;;2.45;;
42098;SDS011;27758;55.900;8.516;2022-07-23T07:11:45;9.90;;;2.08;;
42098;SDS011;27758;55.900;8.516;2022-07-23T07:14:11;10.05;;;2.38;;
42098;SDS011;27758;55.900;8.516;2022-07-23T07:16:37;8.80;;;2.45;;
42098;SDS011;27758;55.900;8.516;2022-07-23T07:19:03;10.20;;;2.22;;
42098;SDS011;27758;55.900;8.516;2022-07-23T07:21:28;11.35;;;2.58;;
42098;SDS011;27758;55.900;8.516;2022-07-23T07:23:54;12.48;;;2.92;;
42098;SDS011;27758;55.900;8.516;2022-07-23T07:26:20;11.50;;;2.47;;
42098;SDS011;27758;55.900;8.516;2022-07-23T07:28:46;10.38;;;2.45;;
42098;SDS011;27758;55.900;8.516;2022-07-23T07:31:12;11.25;;;2.50;;
42098;SDS011;27758;55.900;8.516;2022-07-23T07:33:38;11.73;;;2.53;;
42098;SDS011;27758;55.900;8.516;2022-07-23T07:36:04;7.13;;;2.40;;
42098;SDS011;27758;55.900;8.516;2022-07-23T07:38:30;9.68;;;2.15;;
42098;SDS011;27758;55.900;8.516;2022-07-23T07:40:56;8.20;;;2.33;;
42098;SDS011;27758;55.900;8.516;2022-07-23T07:43:22;10.70;;;2.70;;
42098;SDS011;27758;55.900;8.516;2022-07-23T07:45:48;12.27;;;2.92;;
42098;SDS011;27758;55.900;8.516;2022-07-23T07:48:14;11.90;;;2.70;;
42098;SDS011;27758;55.900;8.516;2022-07-23T07:50:39;8.05;;;2.45;;
42098;SDS011;27758;55.900;8.516;2022-07-23T07:53:05;14.55;;;2.67;;
42098;SDS011;27758;55.900;8.516;2022-07-23T07:55:31;10.63;;;2.53;;
42098;SDS011;27758;55.900;8.516;2022-07-23T07:57:58;13.57;;;2.60;;
42098;SDS011;27758;55.900;8.516;2022-07-23T08:00:24;15.32;;;2.90;;
42098;SDS011;27758;55.900;8.516;2022-07-23T08:02:51;10.02;;;2.33;;
42098;SDS011;27758;55.900;8.516;2022-07-23T08:05:19;11.52;;;2.60;;
42098;SDS011;27758;55.900;8.516;2022-07-23T08:07:46;17.08;;;3.47;;
42098;SDS011;27758;55.900;8.516;2022-07-23T08:10:12;13.63;;;3.25;;
42098;SDS011;27758;55.900;8.516;2022-07-23T08:12:59;17.33;;;3.03;;
42098;SDS011;27758;55.900;8.516;2022-07-23T08:15:25;11.55;;;2.97;;
42098;SDS011;27758;55.900;8.516;2022-07-23T08:17:52;12.27;;;3.33;;
42098;SDS011;27758;55.900;8.516;2022-07-23T08:20:20;12.27;;;2.30;;
42098;SDS011;27758;55.900;8.516;2022-07-23T08:22:57;15.90;;;3.42;;
42098;SDS011;27758;55.900;8.516;2022-07-23T08:25:27;16.17;;;2.65;;
42098;SDS011;27758;55.900;8.516;2022-07-23T08:27:55;13.27;;;2.55;;
42098;SDS011;27758;55.900;8.516;2022-07-23T08:30:22;13.02;;;3.20;;
42098;SDS011;27758;55.900;8.516;2022-07-23T08:35:29;9.38;;;2.35;;
42098;SDS011;27758;55.900;8.516;2022-07-23T08:37:58;7.82;;;2.30;;
42098;SDS011;27758;55.900;8.516;2022-07-23T08:40:26;10.95;;;2.75;;
42098;SDS011;27758;55.900;8.516;2022-07-23T08:42:53;12.98;;;2.63;;
42098;SDS011;27758;55.900;8.516;2022-07-23T08:45:20;11.95;;;2.22;;
42098;SDS011;27758;55.900;8.516;2022-07-23T08:47:54;10.88;;;2.03;;
42098;SDS011;27758;55.900;8.516;2022-07-23T08:50:21;9.50;;;2.00;;
42098;SDS011;27758;55.900;8.516;2022-07-23T08:52:49;11.85;;;2.47;;
42098;SDS011;27758;55.900;8.516;2022-07-23T08:55:16;9.75;;;2.13;;
42098;SDS011;27758;55.900;8.516;2022-07-23T08:57:43;7.05;;;2.35;;
42098;SDS011;27758;55.900;8.516;2022-07-23T09:00:09;12.43;;;2.15;;
42098;SDS011;27758;55.900;8.516;2022-07-23T09:02:42;10.52;;;2.47;;
42098;SDS011;27758;55.900;8.516;2022-07-23T09:05:10;9.55;;;2.35;;
42098;SDS011;27758;55.900;8.516;2022-07-23T09:07:38;10.82;;;1.88;;
42098;SDS011;27758;55.900;8.516;2022-07-23T09:10:52;6.30;;;2.00;;
42098;SDS011;27758;55.900;8.516;2022-07-23T09:16:14;12.55;;;2.17;;
42098;SDS011;27758;55.900;8.516;2022-07-23T09:18:50;11.50;;;2.42;;
42098;SDS011;27758;55.900;8.516;2022-07-23T09:23:52;9.77;;;2.33;;
42098;SDS011;27758;55.900;8.516;2022-07-23T09:28:56;7.82;;;2.20;;
42098;SDS011;27758;55.900;8.516;2022-07-23T09:31:24;9.48;;;2.08;;
42098;SDS011;27758;55.900;8.516;2022-07-23T09:34:06;9.02;;;2.33;;
42098;SDS011;27758;55.900;8.516;2022-07-23T09:36:33;11.68;;;2.72;;
42098;SDS011;27758;55.900;8.516;2022-07-23T09:38:59;11.25;;;2.28;;
42098;SDS011;27758;55.900;8.516;2022-07-23T09:41:34;9.85;;;1.92;;
42098;SDS011;27758;55.900;8.516;2022-07-23T09:44:14;11.20;;;2.58;;
42098;SDS011;27758;55.900;8.516;2022-07-23T09:46:43;7.68;;;1.88;;
42098;SDS011;27758;55.900;8.516;2022-07-23T09:49:12;11.40;;;2.42;;
42098;SDS011;27758;55.900;8.516;2022-07-23T09:51:46;4.63;;;1.55;;
42098;SDS011;27758;55.900;8.516;2022-07-23T09:54:24;12.50;;;3.35;;
42098;SDS011;27758;55.900;8.516;2022-07-23T09:56:54;12.88;;;1.98;;
42098;SDS011;27758;55.900;8.516;2022-07-23T09:59:27;12.77;;;2.47;;
42098;SDS011;27758;55.900;8.516;2022-07-23T10:01:58;11.55;;;2.10;;
42098;SDS011;27758;55.900;8.516;2022-07-23T10:04:25;5.95;;;1.80;;
42098;SDS011;27758;55.900;8.516;2022-07-23T10:06:53;11.07;;;2.38;;
42098;SDS011;27758;55.900;8.516;2022-07-23T10:09:23;9.60;;;2.05;;
42098;SDS011;27758;55.900;8.516;2022-07-23T10:11:50;11.52;;;2.92;;
42098;SDS011;27758;55.900;8.516;2022-07-23T10:14:20;11.45;;;2.42;;
42098;SDS011;27758;55.900;8.516;2022-07-23T10:16:46;8.65;;;1.90;;
42098;SDS011;27758;55.900;8.516;2022-07-23T10:19:13;11.57;;;3.33;;
42098;SDS011;27758;55.900;8.516;2022-07-23T10:21:40;16.60;;;2.28;;
42098;SDS011;27758;55.900;8.516;2022-07-23T10:24:16;8.88;;;2.45;;
42098;SDS011;27758;55.900;8.516;2022-07-23T10:27:04;11.68;;;2.60;;
42098;SDS011;27758;55.900;8.516;2022-07-23T10:35:22;10.93;;;2.40;;
42098;SDS011;27758;55.900;8.516;2022-07-23T10:38:15;7.50;;;2.10;;
42098;SDS011;27758;55.900;8.516;2022-07-23T10:40:57;13.75;;;2.13;;
42098;SDS011;27758;55.900;8.516;2022-07-23T10:43:27;12.85;;;2.47;;
42098;SDS011;27758;55.900;8.516;2022-07-23T10:45:54;13.25;;;3.28;;
42098;SDS011;27758;55.900;8.516;2022-07-23T10:48:22;10.63;;;2.42;;
42098;SDS011;27758;55.900;8.516;2022-07-23T10:51:24;14.02;;;2.63;;
42098;SDS011;27758;55.900;8.516;2022-07-23T10:59:16;9.40;;;2.25;;
42098;SDS011;27758;55.900;8.516;2022-07-23T11:01:42;10.65;;;2.13;;
42098;SDS011;27758;55.900;8.516;2022-07-23T11:04:08;19.90;;;2.67;;
42098;SDS011;27758;55.900;8.516;2022-07-23T11:09:27;12.77;;;2.55;;
42098;SDS011;27758;55.900;8.516;2022-07-23T11:17:26;9.98;;;2.67;;
42098;SDS011;27758;55.900;8.516;2022-07-23T11:22:39;12.10;;;2.45;;
42098;SDS011;27758;55.900;8.516;2022-07-23T11:25:13;10.05;;;3.03;;
42098;SDS011;27758;55.900;8.516;2022-07-23T11:27:48;13.15;;;2.30;;
42098;SDS011;27758;55.900;8.516;2022-07-23T11:30:36;10.35;;;2.80;;
42098;SDS011;27758;55.900;8.516;2022-07-23T11:35:39;7.65;;;1.70;;
42098;SDS011;27758;55.900;8.516;2022-07-23T11:40:50;5.97;;;1.73;;
42098;SDS011;27758;55.900;8.516;2022-07-23T11:43:18;9.27;;;1.80;;
42098;SDS011;27758;55.900;8.516;2022-07-23T11:45:50;6.50;;;1.58;;
42098;SDS011;27758;55.900;8.516;2022-07-23T11:48:23;9.43;;;1.88;;
42098;SDS011;27758;55.900;8.516;2022-07-23T11:50:51;10.77;;;1.92;;
42098;SDS011;27758;55.900;8.516;2022-07-23T11:53:25;9.25;;;1.60;;
42098;SDS011;27758;55.900;8.516;2022-07-23T11:55:53;8.98;;;1.75;;
42098;SDS011;27758;55.900;8.516;2022-07-23T11:58:20;8.82;;;2.13;;
42098;SDS011;27758;55.900;8.516;2022-07-23T12:00:46;9.40;;;1.52;;
42098;SDS011;27758;55.900;8.516;2022-07-23T12:03:12;9.70;;;1.98;;
42098;SDS011;27758;55.900;8.516;2022-07-23T12:05:39;16.45;;;2.78;;
42098;SDS011;27758;55.900;8.516;2022-07-23T12:08:06;8.48;;;1.60;;
42098;SDS011;27758;55.900;8.516;2022-07-23T12:10:43;7.90;;;2.22;;
42098;SDS011;27758;55.900;8.516;2022-07-23T12:13:11;4.63;;;1.48;;
42098;SDS011;27758;55.900;8.516;2022-07-23T12:15:40;6.32;;;1.63;;
42098;SDS011;27758;55.900;8.516;2022-07-23T12:18:08;5.25;;;1.20;;
42098;SDS011;27758;55.900;8.516;2022-07-23T12:20:38;5.45;;;1.38;;
42098;SDS011;27758;55.900;8.516;2022-07-23T12:23:07;6.68;;;1.25;;
42098;SDS011;27758;55.900;8.516;2022-07-23T12:25:35;5.85;;;1.17;;
42098;SDS011;27758;55.900;8.516;2022-07-23T12:28:19;7.40;;;1.95;;
42098;SDS011;27758;55.900;8.516;2022-07-23T12:30:50;7.82;;;1.60;;
42098;SDS011;27758;55.900;8.516;2022-07-23T12:33:24;5.13;;;1.63;;
42098;SDS011;27758;55.900;8.516;2022-07-23T12:35:55;6.68;;;1.90;;
42098;SDS011;27758;55.900;8.516;2022-07-23T12:38:23;5.20;;;1.52;;
42098;SDS011;27758;55.900;8.516;2022-07-23T12:40:54;6.15;;;1.35;;
42098;SDS011;27758;55.900;8.516;2022-07-23T12:45:53;5.50;;;1.52;;
42098;SDS011;27758;55.900;8.516;2022-07-23T12:48:22;7.47;;;1.23;;
42098;SDS011;27758;55.900;8.516;2022-07-23T12:53:24;6.32;;;1.60;;
42098;SDS011;27758;55.900;8.516;2022-07-23T12:56:55;6.32;;;1.73;;
42098;SDS011;27758;55.900;8.516;2022-07-23T12:58:53;6.72;;;1.27;;
42098;SDS011;27758;55.900;8.516;2022-07-23T13:01:33;9.15;;;1.40;;
42098;SDS011;27758;55.900;8.516;2022-07-23T13:04:01;9.25;;;1.38;;
42098;SDS011;27758;55.900;8.516;2022-07-23T13:06:29;10.25;;;1.40;;
42098;SDS011;27758;55.900;8.516;2022-07-23T13:08:58;5.90;;;1.38;;
42098;SDS011;27758;55.900;8.516;2022-07-23T13:11:24;6.30;;;1.23;;
42098;SDS011;27758;55.900;8.516;2022-07-23T13:13:50;9.13;;;1.75;;
42098;SDS011;27758;55.900;8.516;2022-07-23T13:16:16;5.82;;;1.38;;
42098;SDS011;27758;55.900;8.516;2022-07-23T13:18:42;12.48;;;2.10;;
42098;SDS011;27758;55.900;8.516;2022-07-23T13:21:08;9.18;;;1.60;;
42098;SDS011;27758;55.900;8.516;2022-07-23T13:23:34;4.50;;;1.20;;
42098;SDS011;27758;55.900;8.516;2022-07-23T13:26:01;8.05;;;1.75;;
42098;SDS011;27758;55.900;8.516;2022-07-23T13:28:27;7.78;;;1.50;;
42098;SDS011;27758;55.900;8.516;2022-07-23T13:30:53;2.88;;;1.27;;
42098;SDS011;27758;55.900;8.516;2022-07-23T13:33:20;6.68;;;1.25;;
42098;SDS011;27758;55.900;8.516;2022-07-23T13:35:47;5.55;;;1.52;;
42098;SDS011;27758;55.900;8.516;2022-07-23T13:38:14;6.20;;;1.67;;
42098;SDS011;27758;55.900;8.516;2022-07-23T13:40:41;4.45;;;1.17;;
42098;SDS011;27758;55.900;8.516;2022-07-23T13:43:09;7.38;;;1.10;;
42098;SDS011;27758;55.900;8.516;2022-07-23T13:45:37;5.57;;;1.30;;
42098;SDS011;27758;55.900;8.516;2022-07-23T13:48:04;7.50;;;1.33;;
42098;SDS011;27758;55.900;8.516;2022-07-23T13:50:31;4.40;;;1.17;;
42098;SDS011;27758;55.900;8.516;2022-07-23T13:53:00;5.97;;;1.67;;
42098;SDS011;27758;55.900;8.516;2022-07-23T13:55:30;4.57;;;1.20;;
42098;SDS011;27758;55.900;8.516;2022-07-23T13:57:57;2.25;;;0.90;;
42098;SDS011;27758;55.900;8.516;2022-07-23T14:00:23;4.22;;;1.17;;
42098;SDS011;27758;55.900;8.516;2022-07-23T14:02:49;4.20;;;1.15;;
42098;SDS011;27758;55.900;8.516;2022-07-23T14:05:15;3.53;;;1.27;;
42098;SDS011;27758;55.900;8.516;2022-07-23T14:07:41;3.38;;;1.05;;
42098;SDS011;27758;55.900;8.516;2022-07-23T14:10:09;3.88;;;1.10;;
42098;SDS011;27758;55.900;8.516;2022-07-23T14:12:36;5.20;;;1.05;;
42098;SDS011;27758;55.900;8.516;2022-07-23T14:15:03;3.30;;;0.93;;
42098;SDS011;27758;55.900;8.516;2022-07-23T14:17:30;7.35;;;1.38;;
42098;SDS011;27758;55.900;8.516;2022-07-23T14:19:57;5.57;;;1.15;;
42098;SDS011;27758;55.900;8.516;2022-07-23T14:22:26;3.10;;;1.08;;
42098;SDS011;27758;55.900;8.516;2022-07-23T14:24:52;7.05;;;1.40;;
42098;SDS011;27758;55.900;8.516;2022-07-23T14:27:28;7.93;;;1.92;;
42098;SDS011;27758;55.900;8.516;2022-07-23T14:29:54;5.88;;;0.93;;
42098;SDS011;27758;55.900;8.516;2022-07-23T14:32:20;8.63;;;1.40;;
42098;SDS011;27758;55.900;8.516;2022-07-23T14:34:47;5.03;;;1.42;;
42098;SDS011;27758;55.900;8.516;2022-07-23T14:37:13;8.95;;;1.55;;
42098;SDS011;27758;55.900;8.516;2022-07-23T14:39:40;4.13;;;1.75;;
42098;SDS011;27758;55.900;8.516;2022-07-23T14:42:07;5.75;;;1.30;;
42098;SDS011;27758;55.900;8.516;2022-07-23T14:44:34;9.82;;;1.60;;
42098;SDS011;27758;55.900;8.516;2022-07-23T14:47:01;5.22;;;1.35;;
42098;SDS011;27758;55.900;8.516;2022-07-23T14:49:29;6.35;;;1.15;;
42098;SDS011;27758;55.900;8.516;2022-07-23T14:51:56;6.80;;;1.17;;
42098;SDS011;27758;55.900;8.516;2022-07-23T14:54:22;4.25;;;1.02;;
42098;SDS011;27758;55.900;8.516;2022-07-23T14:56:51;2.08;;;1.00;;
42098;SDS011;27758;55.900;8.516;2022-07-23T14:59:17;2.97;;;0.90;;
42098;SDS011;27758;55.900;8.516;2022-07-23T15:01:43;3.72;;;1.00;;
42098;SDS011;27758;55.900;8.516;2022-07-23T15:04:09;3.50;;;1.40;;
42098;SDS011;27758;55.900;8.516;2022-07-23T15:06:35;4.78;;;1.20;;
42098;SDS011;27758;55.900;8.516;2022-07-23T15:09:01;2.60;;;1.00;;
42098;SDS011;27758;55.900;8.516;2022-07-23T15:11:27;3.97;;;0.95;;
42098;SDS011;27758;55.900;8.516;2022-07-23T15:13:56;4.38;;;0.98;;
42098;SDS011;27758;55.900;8.516;2022-07-23T15:16:22;3.42;;;1.30;;
42098;SDS011;27758;55.900;8.516;2022-07-23T15:18:48;6.85;;;1.20;;
42098;SDS011;27758;55.900;8.516;2022-07-23T15:21:14;4.15;;;1.63;;
42098;SDS011;27758;55.900;8.516;2022-07-23T15:23:40;7.25;;;1.48;;
42098;SDS011;27758;55.900;8.516;2022-07-23T15:26:06;2.83;;;1.05;;
42098;SDS011;27758;55.900;8.516;2022-07-23T15:28:33;5.13;;;0.90;;